sensor_id;sensor_type;location;lat;lon;timestamp;P1;durP1;ratioP1;P2;durP2;ratioP2
7917;SDS011;4004;42.624;23.386;2023-11-19T00:02:25;3.37;;;2.47;;
7917;SDS011;4004;42.624;23.386;2023-11-19T00:04:51;2.70;;;2.50;;
7917;SDS011;4004;42.624;23.386;2023-11-19T00:07:20;2.50;;;2.30;;
7917;SDS011;4004;42.624;23.386;2023-11-19T00:09:47;2.60;;;2.40;;
7917;SDS011;4004;42.624;23.386;2023-11-19T00:12:14;2.33;;;2.13;;
7917;SDS011;4004;42.624;23.386;2023-11-19T00:14:41;3.70;;;2.83;;
7917;SDS011;4004;42.624;23.386;2023-11-19T00:17:07;2.50;;;2.23;;
7917;SDS011;4004;42.624;23.386;2023-11-19T00:19:34;2.50;;;2.30;;
7917;SDS011;4004;42.624;23.386;2023-11-19T00:22:01;3.10;;;2.50;;
7917;SDS011;4004;42.624;23.386;2023-11-19T00:24:30;2.53;;;2.33;;
7917;SDS011;4004;42.624;23.386;2023-11-19T00:26:57;2.40;;;2.20;;
7917;SDS011;4004;42.624;23.386;2023-11-19T00:29:24;4.67;;;2.30;;
7917;SDS011;4004;42.624;23.386;2023-11-19T00:31:50;3.50;;;2.47;;
7917;SDS011;4004;42.624;23.386;2023-11-19T00:34:17;2.53;;;2.20;;
7917;SDS011;4004;42.624;23.386;2023-11-19T00:36:46;4.23;;;2.23;;
7917;SDS011;4004;42.624;23.386;2023-11-19T00:39:14;3.43;;;2.77;;
7917;SDS011;4004;42.624;23.386;2023-11-19T00:41:42;2.80;;;2.60;;
7917;SDS011;4004;42.624;23.386;2023-11-19T00:44:11;3.87;;;2.47;;
7917;SDS011;4004;42.624;23.386;2023-11-19T00:46:38;2.93;;;2.37;;
7917;SDS011;4004;42.624;23.386;2023-11-19T00:49:04;2.37;;;2.17;;
7917;SDS011;4004;42.624;23.386;2023-11-19T00:51:31;3.23;;;2.93;;
7917;SDS011;4004;42.624;23.386;2023-11-19T00:53:59;3.93;;;2.37;;
7917;SDS011;4004;42.624;23.386;2023-11-19T00:56:26;2.90;;;2.43;;
7917;SDS011;4004;42.624;23.386;2023-11-19T00:58:54;2.73;;;2.53;;
7917;SDS011;4004;42.624;23.386;2023-11-19T01:01:22;2.37;;;2.17;;
7917;SDS011;4004;42.624;23.386;2023-11-19T01:03:49;3.30;;;3.00;;
7917;SDS011;4004;42.624;23.386;2023-11-19T01:06:26;3.10;;;2.80;;
7917;SDS011;4004;42.624;23.386;2023-11-19T01:08:53;2.07;;;1.90;;
7917;SDS011;4004;42.624;23.386;2023-11-19T01:11:20;4.97;;;2.50;;
7917;SDS011;4004;42.624;23.386;2023-11-19T01:13:47;2.97;;;2.70;;
7917;SDS011;4004;42.624;23.386;2023-11-19T01:16:15;2.80;;;2.50;;
7917;SDS011;4004;42.624;23.386;2023-11-19T01:18:42;2.67;;;2.47;;
7917;SDS011;4004;42.624;23.386;2023-11-19T01:21:09;3.00;;;2.27;;
7917;SDS011;4004;42.624;23.386;2023-11-19T01:23:36;2.57;;;2.37;;
7917;SDS011;4004;42.624;23.386;2023-11-19T01:26:03;3.20;;;2.70;;
7917;SDS011;4004;42.624;23.386;2023-11-19T01:28:31;2.43;;;2.23;;
7917;SDS011;4004;42.624;23.386;2023-11-19T01:30:58;4.23;;;2.33;;
7917;SDS011;4004;42.624;23.386;2023-11-19T01:33:26;2.47;;;2.27;;
7917;SDS011;4004;42.624;23.386;2023-11-19T01:35:53;2.73;;;2.30;;
7917;SDS011;4004;42.624;23.386;2023-11-19T01:38:21;1.97;;;1.87;;
7917;SDS011;4004;42.624;23.386;2023-11-19T01:40:47;2.60;;;2.40;;
7917;SDS011;4004;42.624;23.386;2023-11-19T01:46:02;2.60;;;2.40;;
7917;SDS011;4004;42.624;23.386;2023-11-19T01:48:32;2.73;;;2.23;;
7917;SDS011;4004;42.624;23.386;2023-11-19T01:51:01;3.97;;;2.40;;
7917;SDS011;4004;42.624;23.386;2023-11-19T01:53:30;2.40;;;2.20;;
7917;SDS011;4004;42.624;23.386;2023-11-19T01:55:57;2.50;;;2.30;;
7917;SDS011;4004;42.624;23.386;2023-11-19T01:58:25;2.57;;;2.20;;
7917;SDS011;4004;42.624;23.386;2023-11-19T02:00:52;2.93;;;2.47;;
7917;SDS011;4004;42.624;23.386;2023-11-19T02:03:19;2.30;;;2.10;;
7917;SDS011;4004;42.624;23.386;2023-11-19T02:05:49;2.47;;;2.10;;
7917;SDS011;4004;42.624;23.386;2023-11-19T02:08:16;2.20;;;2.00;;
7917;SDS011;4004;42.624;23.386;2023-11-19T02:10:43;2.57;;;2.33;;
7917;SDS011;4004;42.624;23.386;2023-11-19T02:13:10;2.30;;;2.13;;
7917;SDS011;4004;42.624;23.386;2023-11-19T02:15:38;2.83;;;2.20;;
7917;SDS011;4004;42.624;23.386;2023-11-19T02:18:20;2.73;;;2.53;;
7917;SDS011;4004;42.624;23.386;2023-11-19T02:20:49;2.30;;;2.07;;
7917;SDS011;4004;42.624;23.386;2023-11-19T02:23:16;3.43;;;2.27;;
7917;SDS011;4004;42.624;23.386;2023-11-19T02:25:47;2.33;;;2.13;;
7917;SDS011;4004;42.624;23.386;2023-11-19T02:28:21;2.53;;;2.33;;
7917;SDS011;4004;42.624;23.386;2023-11-19T02:30:47;2.27;;;2.00;;
7917;SDS011;4004;42.624;23.386;2023-11-19T02:33:14;2.50;;;2.30;;
7917;SDS011;4004;42.624;23.386;2023-11-19T02:35:41;2.50;;;2.30;;
7917;SDS011;4004;42.624;23.386;2023-11-19T02:38:08;2.37;;;2.17;;
7917;SDS011;4004;42.624;23.386;2023-11-19T02:40:34;4.33;;;2.40;;
7917;SDS011;4004;42.624;23.386;2023-11-19T02:43:01;2.43;;;2.23;;
7917;SDS011;4004;42.624;23.386;2023-11-19T02:45:31;2.87;;;2.67;;
7917;SDS011;4004;42.624;23.386;2023-11-19T02:47:58;2.90;;;1.93;;
7917;SDS011;4004;42.624;23.386;2023-11-19T02:50:26;2.50;;;2.30;;
7917;SDS011;4004;42.624;23.386;2023-11-19T02:52:54;3.50;;;2.40;;
7917;SDS011;4004;42.624;23.386;2023-11-19T02:55:22;2.73;;;2.50;;
7917;SDS011;4004;42.624;23.386;2023-11-19T02:57:50;2.20;;;2.00;;
7917;SDS011;4004;42.624;23.386;2023-11-19T03:00:18;2.53;;;2.33;;
7917;SDS011;4004;42.624;23.386;2023-11-19T03:02:50;2.23;;;2.03;;
7917;SDS011;4004;42.624;23.386;2023-11-19T03:05:24;2.13;;;1.93;;
7917;SDS011;4004;42.624;23.386;2023-11-19T03:07:55;2.43;;;2.20;;
7917;SDS011;4004;42.624;23.386;2023-11-19T03:10:21;2.03;;;1.90;;
7917;SDS011;4004;42.624;23.386;2023-11-19T03:12:49;2.47;;;2.10;;
7917;SDS011;4004;42.624;23.386;2023-11-19T03:15:16;2.27;;;2.10;;
7917;SDS011;4004;42.624;23.386;2023-11-19T03:17:42;2.60;;;2.40;;
7917;SDS011;4004;42.624;23.386;2023-11-19T03:20:11;2.40;;;2.20;;
7917;SDS011;4004;42.624;23.386;2023-11-19T03:22:40;2.43;;;2.17;;
7917;SDS011;4004;42.624;23.386;2023-11-19T03:25:08;2.57;;;2.37;;
7917;SDS011;4004;42.624;23.386;2023-11-19T03:27:34;3.37;;;2.37;;
7917;SDS011;4004;42.624;23.386;2023-11-19T03:30:02;2.40;;;2.20;;
7917;SDS011;4004;42.624;23.386;2023-11-19T03:32:30;3.33;;;2.40;;
7917;SDS011;4004;42.624;23.386;2023-11-19T03:34:57;3.13;;;2.47;;
7917;SDS011;4004;42.624;23.386;2023-11-19T03:37:26;2.30;;;2.10;;
7917;SDS011;4004;42.624;23.386;2023-11-19T03:39:53;2.93;;;2.03;;
7917;SDS011;4004;42.624;23.386;2023-11-19T03:42:20;3.17;;;2.03;;
7917;SDS011;4004;42.624;23.386;2023-11-19T03:44:47;3.07;;;1.80;;
7917;SDS011;4004;42.624;23.386;2023-11-19T03:47:15;2.23;;;2.00;;
7917;SDS011;4004;42.624;23.386;2023-11-19T03:49:42;2.50;;;2.23;;
7917;SDS011;4004;42.624;23.386;2023-11-19T03:52:09;2.50;;;2.30;;
7917;SDS011;4004;42.624;23.386;2023-11-19T03:54:37;3.83;;;2.47;;
7917;SDS011;4004;42.624;23.386;2023-11-19T03:57:04;2.43;;;2.23;;
7917;SDS011;4004;42.624;23.386;2023-11-19T03:59:31;2.47;;;2.27;;
7917;SDS011;4004;42.624;23.386;2023-11-19T04:01:58;2.67;;;2.47;;
7917;SDS011;4004;42.624;23.386;2023-11-19T04:04:25;3.53;;;2.40;;
7917;SDS011;4004;42.624;23.386;2023-11-19T04:06:52;2.90;;;2.63;;
7917;SDS011;4004;42.624;23.386;2023-11-19T04:09:19;2.27;;;2.07;;
7917;SDS011;4004;42.624;23.386;2023-11-19T04:11:48;3.00;;;2.60;;
7917;SDS011;4004;42.624;23.386;2023-11-19T04:14:15;2.57;;;2.10;;
7917;SDS011;4004;42.624;23.386;2023-11-19T04:16:43;2.60;;;2.40;;
7917;SDS011;4004;42.624;23.386;2023-11-19T04:19:10;3.07;;;2.77;;
7917;SDS011;4004;42.624;23.386;2023-11-19T04:21:37;2.73;;;2.53;;
7917;SDS011;4004;42.624;23.386;2023-11-19T04:24:06;2.47;;;2.27;;
7917;SDS011;4004;42.624;23.386;2023-11-19T04:26:33;3.03;;;2.70;;
7917;SDS011;4004;42.624;23.386;2023-11-19T04:29:03;2.97;;;2.40;;
7917;SDS011;4004;42.624;23.386;2023-11-19T04:31:30;2.37;;;2.17;;
7917;SDS011;4004;42.624;23.386;2023-11-19T04:33:57;3.10;;;2.80;;
7917;SDS011;4004;42.624;23.386;2023-11-19T04:36:25;3.00;;;2.70;;
7917;SDS011;4004;42.624;23.386;2023-11-19T04:38:52;2.87;;;2.60;;
7917;SDS011;4004;42.624;23.386;2023-11-19T04:41:19;3.13;;;2.73;;
7917;SDS011;4004;42.624;23.386;2023-11-19T04:43:46;3.70;;;2.47;;
7917;SDS011;4004;42.624;23.386;2023-11-19T04:46:14;2.30;;;2.10;;
7917;SDS011;4004;42.624;23.386;2023-11-19T04:48:41;2.57;;;2.30;;
7917;SDS011;4004;42.624;23.386;2023-11-19T04:51:08;2.50;;;2.30;;
7917;SDS011;4004;42.624;23.386;2023-11-19T04:53:35;3.17;;;2.43;;
7917;SDS011;4004;42.624;23.386;2023-11-19T04:56:07;2.53;;;2.33;;
7917;SDS011;4004;42.624;23.386;2023-11-19T04:58:34;2.80;;;2.30;;
7917;SDS011;4004;42.624;23.386;2023-11-19T05:01:01;2.80;;;2.50;;
7917;SDS011;4004;42.624;23.386;2023-11-19T05:03:30;3.03;;;2.73;;
7917;SDS011;4004;42.624;23.386;2023-11-19T05:05:57;2.80;;;2.60;;
7917;SDS011;4004;42.624;23.386;2023-11-19T05:08:24;2.67;;;2.47;;
7917;SDS011;4004;42.624;23.386;2023-11-19T05:10:51;2.90;;;2.70;;
7917;SDS011;4004;42.624;23.386;2023-11-19T05:13:18;4.90;;;2.10;;
7917;SDS011;4004;42.624;23.386;2023-11-19T05:15:44;3.10;;;2.33;;
7917;SDS011;4004;42.624;23.386;2023-11-19T05:18:11;4.47;;;4.03;;
7917;SDS011;4004;42.624;23.386;2023-11-19T05:20:39;7.20;;;2.53;;
7917;SDS011;4004;42.624;23.386;2023-11-19T05:23:05;3.07;;;2.40;;
7917;SDS011;4004;42.624;23.386;2023-11-19T05:25:32;2.60;;;2.40;;
7917;SDS011;4004;42.624;23.386;2023-11-19T05:27:59;3.00;;;2.60;;
7917;SDS011;4004;42.624;23.386;2023-11-19T05:30:26;2.50;;;2.30;;
7917;SDS011;4004;42.624;23.386;2023-11-19T05:32:52;2.47;;;2.27;;
7917;SDS011;4004;42.624;23.386;2023-11-19T05:35:19;2.97;;;2.43;;
7917;SDS011;4004;42.624;23.386;2023-11-19T05:37:47;2.20;;;2.00;;
7917;SDS011;4004;42.624;23.386;2023-11-19T05:40:15;4.67;;;2.27;;
7917;SDS011;4004;42.624;23.386;2023-11-19T05:42:42;2.60;;;2.40;;
7917;SDS011;4004;42.624;23.386;2023-11-19T05:45:11;2.53;;;2.33;;
7917;SDS011;4004;42.624;23.386;2023-11-19T05:47:38;3.00;;;2.70;;
7917;SDS011;4004;42.624;23.386;2023-11-19T05:50:05;2.87;;;2.57;;
7917;SDS011;4004;42.624;23.386;2023-11-19T05:52:33;3.10;;;2.57;;
7917;SDS011;4004;42.624;23.386;2023-11-19T05:55:01;2.47;;;2.27;;
7917;SDS011;4004;42.624;23.386;2023-11-19T05:57:29;2.67;;;2.20;;
7917;SDS011;4004;42.624;23.386;2023-11-19T05:59:56;2.80;;;2.60;;
7917;SDS011;4004;42.624;23.386;2023-11-19T06:02:24;2.60;;;2.40;;
7917;SDS011;4004;42.624;23.386;2023-11-19T06:04:52;2.73;;;2.53;;
7917;SDS011;4004;42.624;23.386;2023-11-19T06:07:19;4.73;;;2.60;;
7917;SDS011;4004;42.624;23.386;2023-11-19T06:09:46;2.97;;;2.67;;
7917;SDS011;4004;42.624;23.386;2023-11-19T06:12:14;3.00;;;2.67;;
7917;SDS011;4004;42.624;23.386;2023-11-19T06:14:41;4.00;;;3.10;;
7917;SDS011;4004;42.624;23.386;2023-11-19T06:17:07;3.37;;;2.50;;
7917;SDS011;4004;42.624;23.386;2023-11-19T06:19:36;3.00;;;2.70;;
7917;SDS011;4004;42.624;23.386;2023-11-19T06:22:03;4.57;;;2.97;;
7917;SDS011;4004;42.624;23.386;2023-11-19T06:24:29;3.23;;;2.70;;
7917;SDS011;4004;42.624;23.386;2023-11-19T06:26:56;3.53;;;2.60;;
7917;SDS011;4004;42.624;23.386;2023-11-19T06:29:24;4.03;;;2.77;;
7917;SDS011;4004;42.624;23.386;2023-11-19T06:31:51;3.40;;;3.10;;
7917;SDS011;4004;42.624;23.386;2023-11-19T06:34:18;2.97;;;2.70;;
7917;SDS011;4004;42.624;23.386;2023-11-19T06:36:45;3.13;;;2.70;;
7917;SDS011;4004;42.624;23.386;2023-11-19T06:39:13;3.07;;;2.33;;
7917;SDS011;4004;42.624;23.386;2023-11-19T06:41:44;5.53;;;3.00;;
7917;SDS011;4004;42.624;23.386;2023-11-19T06:44:11;4.37;;;2.90;;
7917;SDS011;4004;42.624;23.386;2023-11-19T06:46:40;3.57;;;3.10;;
7917;SDS011;4004;42.624;23.386;2023-11-19T06:49:07;2.70;;;2.50;;
7917;SDS011;4004;42.624;23.386;2023-11-19T06:51:33;2.67;;;2.47;;
7917;SDS011;4004;42.624;23.386;2023-11-19T06:54:00;3.13;;;2.83;;
7917;SDS011;4004;42.624;23.386;2023-11-19T06:56:27;3.20;;;2.83;;
7917;SDS011;4004;42.624;23.386;2023-11-19T06:58:54;2.70;;;2.50;;
7917;SDS011;4004;42.624;23.386;2023-11-19T07:01:21;4.20;;;2.90;;
7917;SDS011;4004;42.624;23.386;2023-11-19T07:03:49;5.17;;;3.10;;
7917;SDS011;4004;42.624;23.386;2023-11-19T07:06:17;3.13;;;2.70;;
7917;SDS011;4004;42.624;23.386;2023-11-19T07:08:44;3.43;;;3.03;;
7917;SDS011;4004;42.624;23.386;2023-11-19T07:11:11;4.00;;;3.03;;
7917;SDS011;4004;42.624;23.386;2023-11-19T07:13:39;3.47;;;3.17;;
7917;SDS011;4004;42.624;23.386;2023-11-19T07:16:07;3.17;;;2.87;;
7917;SDS011;4004;42.624;23.386;2023-11-19T07:18:35;3.10;;;2.63;;
7917;SDS011;4004;42.624;23.386;2023-11-19T07:21:03;3.53;;;2.83;;
7917;SDS011;4004;42.624;23.386;2023-11-19T07:23:30;3.77;;;2.83;;
7917;SDS011;4004;42.624;23.386;2023-11-19T07:25:58;3.50;;;3.20;;
7917;SDS011;4004;42.624;23.386;2023-11-19T07:28:25;3.23;;;2.53;;
7917;SDS011;4004;42.624;23.386;2023-11-19T07:30:53;4.47;;;2.80;;
7917;SDS011;4004;42.624;23.386;2023-11-19T07:33:21;2.93;;;2.67;;
7917;SDS011;4004;42.624;23.386;2023-11-19T07:35:48;3.60;;;2.83;;
7917;SDS011;4004;42.624;23.386;2023-11-19T07:38:16;4.07;;;3.03;;
7917;SDS011;4004;42.624;23.386;2023-11-19T07:40:43;3.20;;;2.70;;
7917;SDS011;4004;42.624;23.386;2023-11-19T07:43:10;3.27;;;2.93;;
7917;SDS011;4004;42.624;23.386;2023-11-19T07:45:36;3.27;;;2.97;;
7917;SDS011;4004;42.624;23.386;2023-11-19T07:48:03;3.63;;;3.03;;
7917;SDS011;4004;42.624;23.386;2023-11-19T07:50:31;2.90;;;2.67;;
7917;SDS011;4004;42.624;23.386;2023-11-19T07:52:58;3.73;;;2.97;;
7917;SDS011;4004;42.624;23.386;2023-11-19T07:55:26;6.73;;;4.70;;
7917;SDS011;4004;42.624;23.386;2023-11-19T07:57:53;4.93;;;3.40;;
7917;SDS011;4004;42.624;23.386;2023-11-19T08:00:20;6.80;;;3.30;;
7917;SDS011;4004;42.624;23.386;2023-11-19T08:02:47;3.43;;;3.13;;
7917;SDS011;4004;42.624;23.386;2023-11-19T08:05:14;2.93;;;2.67;;
7917;SDS011;4004;42.624;23.386;2023-11-19T08:07:41;4.07;;;3.23;;
7917;SDS011;4004;42.624;23.386;2023-11-19T08:10:08;3.20;;;2.90;;
7917;SDS011;4004;42.624;23.386;2023-11-19T08:12:37;3.33;;;3.00;;
7917;SDS011;4004;42.624;23.386;2023-11-19T08:15:04;3.57;;;3.20;;
7917;SDS011;4004;42.624;23.386;2023-11-19T08:17:32;5.00;;;3.10;;
7917;SDS011;4004;42.624;23.386;2023-11-19T08:19:58;5.10;;;3.13;;
7917;SDS011;4004;42.624;23.386;2023-11-19T08:22:26;3.27;;;2.97;;
7917;SDS011;4004;42.624;23.386;2023-11-19T08:24:53;2.97;;;2.57;;
7917;SDS011;4004;42.624;23.386;2023-11-19T08:27:19;3.90;;;3.17;;
7917;SDS011;4004;42.624;23.386;2023-11-19T08:29:53;4.37;;;3.43;;
7917;SDS011;4004;42.624;23.386;2023-11-19T08:32:21;6.13;;;2.97;;
7917;SDS011;4004;42.624;23.386;2023-11-19T08:34:48;4.43;;;3.10;;
7917;SDS011;4004;42.624;23.386;2023-11-19T08:37:15;3.40;;;3.10;;
7917;SDS011;4004;42.624;23.386;2023-11-19T08:39:43;7.07;;;2.87;;
7917;SDS011;4004;42.624;23.386;2023-11-19T08:42:10;4.30;;;3.73;;
7917;SDS011;4004;42.624;23.386;2023-11-19T08:44:36;2.87;;;2.67;;
7917;SDS011;4004;42.624;23.386;2023-11-19T08:47:05;3.17;;;2.87;;
7917;SDS011;4004;42.624;23.386;2023-11-19T08:49:31;4.37;;;3.03;;
7917;SDS011;4004;42.624;23.386;2023-11-19T08:51:58;4.40;;;2.97;;
7917;SDS011;4004;42.624;23.386;2023-11-19T08:54:25;3.33;;;3.03;;
7917;SDS011;4004;42.624;23.386;2023-11-19T08:56:52;3.87;;;2.63;;
7917;SDS011;4004;42.624;23.386;2023-11-19T08:59:18;3.60;;;2.90;;
7917;SDS011;4004;42.624;23.386;2023-11-19T09:01:45;3.27;;;2.70;;
7917;SDS011;4004;42.624;23.386;2023-11-19T09:04:13;3.57;;;2.80;;
7917;SDS011;4004;42.624;23.386;2023-11-19T09:06:41;2.70;;;2.50;;
7917;SDS011;4004;42.624;23.386;2023-11-19T09:09:09;3.97;;;3.03;;
7917;SDS011;4004;42.624;23.386;2023-11-19T09:11:35;2.93;;;2.63;;
7917;SDS011;4004;42.624;23.386;2023-11-19T09:14:03;4.57;;;2.53;;
7917;SDS011;4004;42.624;23.386;2023-11-19T09:16:30;3.40;;;2.80;;
7917;SDS011;4004;42.624;23.386;2023-11-19T09:18:57;3.17;;;2.87;;
7917;SDS011;4004;42.624;23.386;2023-11-19T09:21:26;5.43;;;4.17;;
7917;SDS011;4004;42.624;23.386;2023-11-19T09:23:54;3.10;;;2.80;;
7917;SDS011;4004;42.624;23.386;2023-11-19T09:26:21;3.97;;;3.23;;
7917;SDS011;4004;42.624;23.386;2023-11-19T09:28:48;3.93;;;3.00;;
7917;SDS011;4004;42.624;23.386;2023-11-19T09:31:15;3.03;;;2.73;;
7917;SDS011;4004;42.624;23.386;2023-11-19T09:33:42;3.80;;;2.60;;
7917;SDS011;4004;42.624;23.386;2023-11-19T09:36:09;2.90;;;2.57;;
7917;SDS011;4004;42.624;23.386;2023-11-19T09:38:40;3.10;;;2.80;;
7917;SDS011;4004;42.624;23.386;2023-11-19T09:41:07;2.80;;;2.37;;
7917;SDS011;4004;42.624;23.386;2023-11-19T09:43:34;4.10;;;2.43;;
7917;SDS011;4004;42.624;23.386;2023-11-19T09:46:04;5.77;;;2.37;;
7917;SDS011;4004;42.624;23.386;2023-11-19T09:48:32;3.17;;;2.50;;
7917;SDS011;4004;42.624;23.386;2023-11-19T09:51:00;2.83;;;2.30;;
7917;SDS011;4004;42.624;23.386;2023-11-19T09:53:27;5.57;;;2.57;;
7917;SDS011;4004;42.624;23.386;2023-11-19T09:55:56;3.93;;;2.83;;
7917;SDS011;4004;42.624;23.386;2023-11-19T09:58:24;3.10;;;2.80;;
7917;SDS011;4004;42.624;23.386;2023-11-19T10:00:51;2.80;;;2.50;;
7917;SDS011;4004;42.624;23.386;2023-11-19T10:03:18;3.07;;;2.50;;
7917;SDS011;4004;42.624;23.386;2023-11-19T10:05:45;3.00;;;2.70;;
7917;SDS011;4004;42.624;23.386;2023-11-19T10:08:12;4.10;;;2.77;;
7917;SDS011;4004;42.624;23.386;2023-11-19T10:10:39;2.93;;;2.40;;
7917;SDS011;4004;42.624;23.386;2023-11-19T10:13:07;2.57;;;2.30;;
7917;SDS011;4004;42.624;23.386;2023-11-19T10:15:35;3.20;;;2.77;;
7917;SDS011;4004;42.624;23.386;2023-11-19T10:18:03;4.27;;;2.60;;
7917;SDS011;4004;42.624;23.386;2023-11-19T10:20:34;3.37;;;2.90;;
7917;SDS011;4004;42.624;23.386;2023-11-19T10:23:01;3.03;;;2.73;;
7917;SDS011;4004;42.624;23.386;2023-11-19T10:25:28;3.13;;;2.70;;
7917;SDS011;4004;42.624;23.386;2023-11-19T10:27:56;13.97;;;3.50;;
7917;SDS011;4004;42.624;23.386;2023-11-19T10:30:25;3.20;;;2.90;;
7917;SDS011;4004;42.624;23.386;2023-11-19T10:35:51;4.87;;;2.80;;
7917;SDS011;4004;42.624;23.386;2023-11-19T10:38:20;4.33;;;2.80;;
7917;SDS011;4004;42.624;23.386;2023-11-19T10:40:47;6.47;;;3.00;;
7917;SDS011;4004;42.624;23.386;2023-11-19T10:43:14;3.80;;;2.83;;
7917;SDS011;4004;42.624;23.386;2023-11-19T10:45:42;3.40;;;2.60;;
7917;SDS011;4004;42.624;23.386;2023-11-19T10:48:09;2.90;;;2.60;;
7917;SDS011;4004;42.624;23.386;2023-11-19T10:50:38;4.50;;;2.23;;
7917;SDS011;4004;42.624;23.386;2023-11-19T10:53:06;3.97;;;2.10;;
7917;SDS011;4004;42.624;23.386;2023-11-19T10:55:34;2.70;;;2.17;;
7917;SDS011;4004;42.624;23.386;2023-11-19T10:58:03;2.53;;;2.33;;
7917;SDS011;4004;42.624;23.386;2023-11-19T11:00:34;4.63;;;2.60;;
7917;SDS011;4004;42.624;23.386;2023-11-19T11:03:08;2.83;;;2.37;;
7917;SDS011;4004;42.624;23.386;2023-11-19T11:05:37;2.73;;;2.20;;
7917;SDS011;4004;42.624;23.386;2023-11-19T11:08:05;4.73;;;2.73;;
7917;SDS011;4004;42.624;23.386;2023-11-19T11:10:35;2.67;;;2.47;;
7917;SDS011;4004;42.624;23.386;2023-11-19T11:13:06;5.60;;;2.50;;
7917;SDS011;4004;42.624;23.386;2023-11-19T11:15:33;3.73;;;2.43;;
7917;SDS011;4004;42.624;23.386;2023-11-19T11:18:01;2.87;;;2.53;;
7917;SDS011;4004;42.624;23.386;2023-11-19T11:20:30;3.67;;;2.30;;
7917;SDS011;4004;42.624;23.386;2023-11-19T11:23:16;2.57;;;2.37;;
7917;SDS011;4004;42.624;23.386;2023-11-19T11:26:00;4.23;;;2.23;;
7917;SDS011;4004;42.624;23.386;2023-11-19T11:28:43;4.10;;;2.73;;
7917;SDS011;4004;42.624;23.386;2023-11-19T11:31:18;2.60;;;2.40;;
7917;SDS011;4004;42.624;23.386;2023-11-19T11:34:05;4.93;;;3.60;;
7917;SDS011;4004;42.624;23.386;2023-11-19T11:36:49;4.13;;;2.30;;
7917;SDS011;4004;42.624;23.386;2023-11-19T11:39:24;2.87;;;2.20;;
7917;SDS011;4004;42.624;23.386;2023-11-19T11:44:58;2.53;;;2.33;;
7917;SDS011;4004;42.624;23.386;2023-11-19T11:47:27;6.73;;;2.13;;
7917;SDS011;4004;42.624;23.386;2023-11-19T11:50:48;3.77;;;2.60;;
7917;SDS011;4004;42.624;23.386;2023-11-19T11:53:18;3.13;;;2.77;;
7917;SDS011;4004;42.624;23.386;2023-11-19T11:55:57;3.87;;;2.80;;
7917;SDS011;4004;42.624;23.386;2023-11-19T11:58:27;3.40;;;2.70;;
7917;SDS011;4004;42.624;23.386;2023-11-19T12:00:58;2.97;;;2.67;;
7917;SDS011;4004;42.624;23.386;2023-11-19T12:03:28;3.43;;;2.80;;
7917;SDS011;4004;42.624;23.386;2023-11-19T12:05:56;3.93;;;2.73;;
7917;SDS011;4004;42.624;23.386;2023-11-19T12:08:26;3.53;;;2.83;;
7917;SDS011;4004;42.624;23.386;2023-11-19T12:10:55;3.10;;;2.80;;
7917;SDS011;4004;42.624;23.386;2023-11-19T12:13:46;3.10;;;2.80;;
7917;SDS011;4004;42.624;23.386;2023-11-19T12:16:20;2.67;;;2.43;;
7917;SDS011;4004;42.624;23.386;2023-11-19T12:18:47;3.20;;;2.90;;
7917;SDS011;4004;42.624;23.386;2023-11-19T12:21:27;4.33;;;2.60;;
7917;SDS011;4004;42.624;23.386;2023-11-19T12:23:56;4.57;;;2.77;;
7917;SDS011;4004;42.624;23.386;2023-11-19T12:26:33;3.10;;;2.63;;
7917;SDS011;4004;42.624;23.386;2023-11-19T12:29:00;5.30;;;3.07;;
7917;SDS011;4004;42.624;23.386;2023-11-19T12:31:31;2.87;;;2.57;;
7917;SDS011;4004;42.624;23.386;2023-11-19T12:34:01;3.50;;;2.83;;
7917;SDS011;4004;42.624;23.386;2023-11-19T12:36:31;2.83;;;2.50;;
7917;SDS011;4004;42.624;23.386;2023-11-19T12:39:00;4.63;;;2.87;;
7917;SDS011;4004;42.624;23.386;2023-11-19T12:41:27;3.83;;;3.10;;
7917;SDS011;4004;42.624;23.386;2023-11-19T12:43:54;3.47;;;3.13;;
7917;SDS011;4004;42.624;23.386;2023-11-19T12:46:36;3.30;;;2.93;;
7917;SDS011;4004;42.624;23.386;2023-11-19T12:49:02;6.33;;;2.40;;
7917;SDS011;4004;42.624;23.386;2023-11-19T12:51:31;3.20;;;2.90;;
7917;SDS011;4004;42.624;23.386;2023-11-19T12:53:59;5.10;;;3.00;;
7917;SDS011;4004;42.624;23.386;2023-11-19T12:56:26;4.70;;;3.10;;
7917;SDS011;4004;42.624;23.386;2023-11-19T12:58:54;3.77;;;3.23;;
7917;SDS011;4004;42.624;23.386;2023-11-19T13:01:21;4.10;;;3.07;;
7917;SDS011;4004;42.624;23.386;2023-11-19T13:03:48;4.80;;;3.23;;
7917;SDS011;4004;42.624;23.386;2023-11-19T13:06:16;4.43;;;3.70;;
7917;SDS011;4004;42.624;23.386;2023-11-19T13:08:46;3.93;;;2.70;;
7917;SDS011;4004;42.624;23.386;2023-11-19T13:11:30;3.27;;;2.97;;
7917;SDS011;4004;42.624;23.386;2023-11-19T13:13:58;3.10;;;2.80;;
7917;SDS011;4004;42.624;23.386;2023-11-19T13:16:26;3.00;;;2.77;;
7917;SDS011;4004;42.624;23.386;2023-11-19T13:18:53;4.03;;;3.47;;
7917;SDS011;4004;42.624;23.386;2023-11-19T13:21:20;4.47;;;3.07;;
7917;SDS011;4004;42.624;23.386;2023-11-19T13:23:47;3.90;;;3.40;;
7917;SDS011;4004;42.624;23.386;2023-11-19T13:26:14;6.23;;;3.43;;
7917;SDS011;4004;42.624;23.386;2023-11-19T13:28:42;3.90;;;3.43;;
7917;SDS011;4004;42.624;23.386;2023-11-19T13:31:09;3.50;;;3.20;;
7917;SDS011;4004;42.624;23.386;2023-11-19T13:33:36;5.30;;;3.47;;
7917;SDS011;4004;42.624;23.386;2023-11-19T13:36:03;3.57;;;3.07;;
7917;SDS011;4004;42.624;23.386;2023-11-19T13:38:32;3.87;;;3.20;;
7917;SDS011;4004;42.624;23.386;2023-11-19T13:40:59;5.50;;;3.53;;
7917;SDS011;4004;42.624;23.386;2023-11-19T13:43:26;4.27;;;3.00;;
7917;SDS011;4004;42.624;23.386;2023-11-19T13:45:55;4.00;;;3.60;;
7917;SDS011;4004;42.624;23.386;2023-11-19T13:48:23;3.60;;;3.17;;
7917;SDS011;4004;42.624;23.386;2023-11-19T13:50:51;4.20;;;3.37;;
7917;SDS011;4004;42.624;23.386;2023-11-19T13:53:18;4.10;;;3.40;;
7917;SDS011;4004;42.624;23.386;2023-11-19T13:55:45;4.90;;;3.10;;
7917;SDS011;4004;42.624;23.386;2023-11-19T13:58:12;4.10;;;3.33;;
7917;SDS011;4004;42.624;23.386;2023-11-19T14:00:39;3.30;;;2.90;;
7917;SDS011;4004;42.624;23.386;2023-11-19T14:03:08;3.90;;;3.10;;
7917;SDS011;4004;42.624;23.386;2023-11-19T14:05:36;5.17;;;3.10;;
7917;SDS011;4004;42.624;23.386;2023-11-19T14:08:03;3.20;;;2.80;;
7917;SDS011;4004;42.624;23.386;2023-11-19T14:10:36;3.47;;;3.17;;
7917;SDS011;4004;42.624;23.386;2023-11-19T14:13:05;3.57;;;3.07;;
7917;SDS011;4004;42.624;23.386;2023-11-19T14:15:32;7.07;;;3.10;;
7917;SDS011;4004;42.624;23.386;2023-11-19T14:17:59;6.87;;;3.20;;
7917;SDS011;4004;42.624;23.386;2023-11-19T14:20:27;7.23;;;2.93;;
7917;SDS011;4004;42.624;23.386;2023-11-19T14:22:54;4.00;;;2.57;;
7917;SDS011;4004;42.624;23.386;2023-11-19T14:25:20;4.63;;;3.53;;
7917;SDS011;4004;42.624;23.386;2023-11-19T14:27:48;4.60;;;3.40;;
7917;SDS011;4004;42.624;23.386;2023-11-19T14:30:15;4.70;;;3.80;;
7917;SDS011;4004;42.624;23.386;2023-11-19T14:32:42;4.47;;;4.07;;
7917;SDS011;4004;42.624;23.386;2023-11-19T14:35:11;4.67;;;3.83;;
7917;SDS011;4004;42.624;23.386;2023-11-19T14:37:39;5.20;;;3.87;;
7917;SDS011;4004;42.624;23.386;2023-11-19T14:40:06;6.87;;;3.50;;
7917;SDS011;4004;42.624;23.386;2023-11-19T14:42:36;11.90;;;3.60;;
7917;SDS011;4004;42.624;23.386;2023-11-19T14:45:04;4.10;;;3.20;;
7917;SDS011;4004;42.624;23.386;2023-11-19T14:47:31;3.90;;;3.23;;
7917;SDS011;4004;42.624;23.386;2023-11-19T14:49:58;4.83;;;3.53;;
7917;SDS011;4004;42.624;23.386;2023-11-19T14:52:25;3.90;;;3.10;;
7917;SDS011;4004;42.624;23.386;2023-11-19T14:54:53;4.23;;;3.40;;
7917;SDS011;4004;42.624;23.386;2023-11-19T14:57:21;5.60;;;3.73;;
7917;SDS011;4004;42.624;23.386;2023-11-19T14:59:48;6.57;;;3.53;;
7917;SDS011;4004;42.624;23.386;2023-11-19T15:02:15;4.03;;;3.60;;
7917;SDS011;4004;42.624;23.386;2023-11-19T15:04:42;5.43;;;3.73;;
7917;SDS011;4004;42.624;23.386;2023-11-19T15:07:09;6.33;;;3.93;;
7917;SDS011;4004;42.624;23.386;2023-11-19T15:09:36;9.57;;;3.47;;
7917;SDS011;4004;42.624;23.386;2023-11-19T15:12:05;8.73;;;4.50;;
7917;SDS011;4004;42.624;23.386;2023-11-19T15:14:32;9.40;;;4.43;;
7917;SDS011;4004;42.624;23.386;2023-11-19T15:16:59;7.03;;;4.57;;